sensor_id;sensor_type;location;lat;lon;timestamp;pressure;altitude;pressure_sealevel;temperature
69435;BMP180;56625;54.322;18.582;2023-04-03T00:01:22;102063.20;;;2.60
69435;BMP180;56625;54.322;18.582;2023-04-03T00:03:50;102072.40;;;2.60
69435;BMP180;56625;54.322;18.582;2023-04-03T00:06:19;102061.80;;;2.50
69435;BMP180;56625;54.322;18.582;2023-04-03T00:08:47;102067.00;;;2.50
69435;BMP180;56625;54.322;18.582;2023-04-03T00:11:15;102077.20;;;2.50
69435;BMP180;56625;54.322;18.582;2023-04-03T00:13:44;102062.80;;;2.56
69435;BMP180;56625;54.322;18.582;2023-04-03T00:16:12;102066.20;;;2.60
69435;BMP180;56625;54.322;18.582;2023-04-03T00:18:40;102072.00;;;2.60
69435;BMP180;56625;54.322;18.582;2023-04-03T00:21:12;102072.00;;;2.54
69435;BMP180;56625;54.322;18.582;2023-04-03T00:23:40;102064.60;;;2.56
69435;BMP180;56625;54.322;18.582;2023-04-03T00:26:08;102071.40;;;2.54
69435;BMP180;56625;54.322;18.582;2023-04-03T00:28:35;102072.60;;;2.50
69435;BMP180;56625;54.322;18.582;2023-04-03T00:31:03;102065.00;;;2.50
69435;BMP180;56625;54.322;18.582;2023-04-03T00:33:31;102075.00;;;2.50
69435;BMP180;56625;54.322;18.582;2023-04-03T00:36:05;102079.40;;;2.50
69435;BMP180;56625;54.322;18.582;2023-04-03T00:38:34;102065.40;;;2.50
69435;BMP180;56625;54.322;18.582;2023-04-03T00:41:03;102075.80;;;2.50
69435;BMP180;56625;54.322;18.582;2023-04-03T00:43:31;102066.80;;;2.50
69435;BMP180;56625;54.322;18.582;2023-04-03T00:46:00;102073.00;;;2.50
69435;BMP180;56625;54.322;18.582;2023-04-03T00:48:46;102068.60;;;2.50
69435;BMP180;56625;54.322;18.582;2023-04-03T00:51:22;102070.20;;;2.50
69435;BMP180;56625;54.322;18.582;2023-04-03T00:53:58;102071.60;;;2.50
69435;BMP180;56625;54.322;18.582;2023-04-03T00:56:29;102065.80;;;2.50
69435;BMP180;56625;54.322;18.582;2023-04-03T00:59:09;102068.60;;;2.50
69435;BMP180;56625;54.322;18.582;2023-04-03T01:01:38;102070.00;;;2.50
69435;BMP180;56625;54.322;18.582;2023-04-03T01:04:29;102064.60;;;2.50
69435;BMP180;56625;54.322;18.582;2023-04-03T01:07:07;102067.20;;;2.40
69435;BMP180;56625;54.322;18.582;2023-04-03T01:09:37;102072.40;;;2.40
69435;BMP180;56625;54.322;18.582;2023-04-03T01:12:36;102073.60;;;2.40
69435;BMP180;56625;54.322;18.582;2023-04-03T01:15:18;102080.00;;;2.40
69435;BMP180;56625;54.322;18.582;2023-04-03T01:17:51;102078.00;;;2.40
69435;BMP180;56625;54.322;18.582;2023-04-03T01:25:51;102076.60;;;2.30
69435;BMP180;56625;54.322;18.582;2023-04-03T01:28:33;102081.40;;;2.24
69435;BMP180;56625;54.322;18.582;2023-04-03T01:31:24;102085.40;;;2.20
69435;BMP180;56625;54.322;18.582;2023-04-03T01:33:55;102084.00;;;2.20
69435;BMP180;56625;54.322;18.582;2023-04-03T01:36:29;102086.00;;;2.20
69435;BMP180;56625;54.322;18.582;2023-04-03T01:38:59;102086.00;;;2.20
69435;BMP180;56625;54.322;18.582;2023-04-03T01:41:28;102090.20;;;2.18
69435;BMP180;56625;54.322;18.582;2023-04-03T01:43:56;102083.20;;;2.14
69435;BMP180;56625;54.322;18.582;2023-04-03T01:46:24;102091.20;;;2.12
69435;BMP180;56625;54.322;18.582;2023-04-03T01:48:53;102089.40;;;2.10
69435;BMP180;56625;54.322;18.582;2023-04-03T01:51:21;102085.60;;;2.10
69435;BMP180;56625;54.322;18.582;2023-04-03T01:53:49;102087.60;;;2.10
69435;BMP180;56625;54.322;18.582;2023-04-03T01:56:17;102086.60;;;2.10
69435;BMP180;56625;54.322;18.582;2023-04-03T01:58:45;102076.60;;;2.08
69435;BMP180;56625;54.322;18.582;2023-04-03T02:01:12;102082.00;;;2.08
69435;BMP180;56625;54.322;18.582;2023-04-03T02:03:40;102095.80;;;2.06
69435;BMP180;56625;54.322;18.582;2023-04-03T02:06:09;102090.00;;;2.00
69435;BMP180;56625;54.322;18.582;2023-04-03T02:08:39;102088.40;;;2.10
69435;BMP180;56625;54.322;18.582;2023-04-03T02:11:07;102089.80;;;2.10
69435;BMP180;56625;54.322;18.582;2023-04-03T02:13:35;102095.40;;;2.10
69435;BMP180;56625;54.322;18.582;2023-04-03T02:16:09;102100.40;;;2.10
69435;BMP180;56625;54.322;18.582;2023-04-03T02:18:38;102098.40;;;2.10
69435;BMP180;56625;54.322;18.582;2023-04-03T02:21:06;102106.20;;;2.10
69435;BMP180;56625;54.322;18.582;2023-04-03T02:23:34;102103.20;;;2.00
69435;BMP180;56625;54.322;18.582;2023-04-03T02:26:08;102099.80;;;2.04
69435;BMP180;56625;54.322;18.582;2023-04-03T02:28:36;102102.00;;;2.04
69435;BMP180;56625;54.322;18.582;2023-04-03T02:31:05;102102.00;;;2.06
69435;BMP180;56625;54.322;18.582;2023-04-03T02:33:36;102107.40;;;2.10
69435;BMP180;56625;54.322;18.582;2023-04-03T02:36:06;102099.20;;;2.08
69435;BMP180;56625;54.322;18.582;2023-04-03T02:38:35;102109.00;;;2.06
69435;BMP180;56625;54.322;18.582;2023-04-03T02:41:08;102108.40;;;2.00
69435;BMP180;56625;54.322;18.582;2023-04-03T02:43:37;102109.00;;;2.00
69435;BMP180;56625;54.322;18.582;2023-04-03T02:46:06;102101.40;;;2.04
69435;BMP180;56625;54.322;18.582;2023-04-03T02:48:34;102104.60;;;2.06
69435;BMP180;56625;54.322;18.582;2023-04-03T02:51:03;102113.80;;;2.10
69435;BMP180;56625;54.322;18.582;2023-04-03T02:53:30;102101.40;;;2.10
69435;BMP180;56625;54.322;18.582;2023-04-03T02:55:58;102099.60;;;2.10
69435;BMP180;56625;54.322;18.582;2023-04-03T02:58:26;102107.40;;;2.10
69435;BMP180;56625;54.322;18.582;2023-04-03T03:00:54;102105.60;;;2.10
69435;BMP180;56625;54.322;18.582;2023-04-03T03:03:21;102110.80;;;2.10
69435;BMP180;56625;54.322;18.582;2023-04-03T03:05:49;102113.20;;;2.10
69435;BMP180;56625;54.322;18.582;2023-04-03T03:08:17;102120.80;;;2.10
69435;BMP180;56625;54.322;18.582;2023-04-03T03:10:47;102125.60;;;2.10
69435;BMP180;56625;54.322;18.582;2023-04-03T03:13:15;102112.80;;;2.10
69435;BMP180;56625;54.322;18.582;2023-04-03T03:15:43;102124.60;;;2.12
69435;BMP180;56625;54.322;18.582;2023-04-03T03:18:11;102124.60;;;2.14
69435;BMP180;56625;54.322;18.582;2023-04-03T03:20:39;102123.60;;;2.14
69435;BMP180;56625;54.322;18.582;2023-04-03T03:23:06;102125.00;;;2.16
69435;BMP180;56625;54.322;18.582;2023-04-03T03:25:41;102122.60;;;2.10
69435;BMP180;56625;54.322;18.582;2023-04-03T03:28:09;102126.60;;;2.14
69435;BMP180;56625;54.322;18.582;2023-04-03T03:30:37;102112.80;;;2.10
69435;BMP180;56625;54.322;18.582;2023-04-03T03:33:05;102127.20;;;2.14
69435;BMP180;56625;54.322;18.582;2023-04-03T03:35:33;102130.40;;;2.14
69435;BMP180;56625;54.322;18.582;2023-04-03T03:38:01;102134.40;;;2.20
69435;BMP180;56625;54.322;18.582;2023-04-03T03:40:28;102129.60;;;2.16
69435;BMP180;56625;54.322;18.582;2023-04-03T03:42:57;102138.80;;;2.16
69435;BMP180;56625;54.322;18.582;2023-04-03T03:45:24;102133.80;;;2.14
69435;BMP180;56625;54.322;18.582;2023-04-03T03:47:53;102134.60;;;2.20
69435;BMP180;56625;54.322;18.582;2023-04-03T03:50:20;102133.20;;;2.20
69435;BMP180;56625;54.322;18.582;2023-04-03T03:52:48;102135.40;;;2.10
69435;BMP180;56625;54.322;18.582;2023-04-03T03:55:16;102139.00;;;2.10
69435;BMP180;56625;54.322;18.582;2023-04-03T03:57:44;102137.00;;;2.10
69435;BMP180;56625;54.322;18.582;2023-04-03T04:00:12;102138.40;;;2.10
69435;BMP180;56625;54.322;18.582;2023-04-03T04:02:40;102145.00;;;2.10
69435;BMP180;56625;54.322;18.582;2023-04-03T04:05:09;102148.40;;;2.10
69435;BMP180;56625;54.322;18.582;2023-04-03T04:07:37;102148.20;;;2.10
69435;BMP180;56625;54.322;18.582;2023-04-03T04:10:05;102157.00;;;2.10
69435;BMP180;56625;54.322;18.582;2023-04-03T04:12:33;102146.60;;;2.10
69435;BMP180;56625;54.322;18.582;2023-04-03T04:15:03;102148.80;;;2.10
69435;BMP180;56625;54.322;18.582;2023-04-03T04:17:31;102156.80;;;2.10
69435;BMP180;56625;54.322;18.582;2023-04-03T04:19:59;102151.40;;;2.10
69435;BMP180;56625;54.322;18.582;2023-04-03T04:22:27;102162.20;;;2.06
69435;BMP180;56625;54.322;18.582;2023-04-03T04:24:55;102163.20;;;2.04
69435;BMP180;56625;54.322;18.582;2023-04-03T04:27:23;102161.60;;;2.00
69435;BMP180;56625;54.322;18.582;2023-04-03T04:29:50;102156.80;;;2.00
69435;BMP180;56625;54.322;18.582;2023-04-03T04:32:18;102164.80;;;2.00
69435;BMP180;56625;54.322;18.582;2023-04-03T04:34:46;102161.40;;;2.00
69435;BMP180;56625;54.322;18.582;2023-04-03T04:37:14;102164.00;;;2.00
69435;BMP180;56625;54.322;18.582;2023-04-03T04:39:42;102170.00;;;2.00
69435;BMP180;56625;54.322;18.582;2023-04-03T04:42:09;102169.60;;;2.00
69435;BMP180;56625;54.322;18.582;2023-04-03T04:44:43;102168.00;;;2.00
69435;BMP180;56625;54.322;18.582;2023-04-03T04:47:11;102169.80;;;2.00
69435;BMP180;56625;54.322;18.582;2023-04-03T04:49:38;102179.40;;;2.00
69435;BMP180;56625;54.322;18.582;2023-04-03T04:52:06;102186.40;;;2.00
69435;BMP180;56625;54.322;18.582;2023-04-03T04:54:34;102177.00;;;2.00
69435;BMP180;56625;54.322;18.582;2023-04-03T04:57:02;102180.20;;;2.00
69435;BMP180;56625;54.322;18.582;2023-04-03T04:59:30;102188.40;;;2.00
69435;BMP180;56625;54.322;18.582;2023-04-03T05:01:58;102190.00;;;2.00
69435;BMP180;56625;54.322;18.582;2023-04-03T05:04:26;102182.60;;;2.02
69435;BMP180;56625;54.322;18.582;2023-04-03T05:06:54;102186.00;;;2.04
69435;BMP180;56625;54.322;18.582;2023-04-03T05:09:22;102189.00;;;2.06
69435;BMP180;56625;54.322;18.582;2023-04-03T05:11:50;102204.00;;;2.00
69435;BMP180;56625;54.322;18.582;2023-04-03T05:14:18;102187.80;;;2.02
69435;BMP180;56625;54.322;18.582;2023-04-03T05:16:45;102191.80;;;2.00
69435;BMP180;56625;54.322;18.582;2023-04-03T05:19:14;102197.80;;;2.00
69435;BMP180;56625;54.322;18.582;2023-04-03T05:21:42;102211.00;;;2.04
69435;BMP180;56625;54.322;18.582;2023-04-03T05:24:10;102194.20;;;2.00
69435;BMP180;56625;54.322;18.582;2023-04-03T05:26:38;102206.40;;;2.00
69435;BMP180;56625;54.322;18.582;2023-04-03T05:29:06;102203.20;;;2.00
69435;BMP180;56625;54.322;18.582;2023-04-03T05:31:34;102208.00;;;2.00
69435;BMP180;56625;54.322;18.582;2023-04-03T05:34:02;102208.20;;;2.00
69435;BMP180;56625;54.322;18.582;2023-04-03T05:36:30;102222.20;;;2.00
69435;BMP180;56625;54.322;18.582;2023-04-03T05:38:58;102216.60;;;2.06
69435;BMP180;56625;54.322;18.582;2023-04-03T05:41:26;102211.20;;;2.10
69435;BMP180;56625;54.322;18.582;2023-04-03T05:43:54;102211.80;;;2.10
69435;BMP180;56625;54.322;18.582;2023-04-03T05:46:22;102214.60;;;2.10
69435;BMP180;56625;54.322;18.582;2023-04-03T05:48:50;102222.40;;;2.10
69435;BMP180;56625;54.322;18.582;2023-04-03T05:51:25;102226.40;;;2.16
69435;BMP180;56625;54.322;18.582;2023-04-03T05:54:06;102228.00;;;2.20
69435;BMP180;56625;54.322;18.582;2023-04-03T05:56:34;102227.40;;;2.12
69435;BMP180;56625;54.322;18.582;2023-04-03T05:59:02;102230.80;;;2.10
69435;BMP180;56625;54.322;18.582;2023-04-03T06:01:30;102227.40;;;2.10
69435;BMP180;56625;54.322;18.582;2023-04-03T06:03:58;102219.20;;;2.12
69435;BMP180;56625;54.322;18.582;2023-04-03T06:06:44;102229.20;;;2.18
69435;BMP180;56625;54.322;18.582;2023-04-03T06:09:14;102228.60;;;2.20
69435;BMP180;56625;54.322;18.582;2023-04-03T06:11:43;102231.00;;;2.24
69435;BMP180;56625;54.322;18.582;2023-04-03T06:14:11;102234.20;;;2.30
69435;BMP180;56625;54.322;18.582;2023-04-03T06:16:39;102226.80;;;2.50
69435;BMP180;56625;54.322;18.582;2023-04-03T06:19:08;102235.20;;;2.70
69435;BMP180;56625;54.322;18.582;2023-04-03T06:21:37;102234.80;;;2.84
69435;BMP180;56625;54.322;18.582;2023-04-03T06:24:06;102230.20;;;2.90
69435;BMP180;56625;54.322;18.582;2023-04-03T06:26:34;102236.40;;;2.80
69435;BMP180;56625;54.322;18.582;2023-04-03T06:29:02;102242.20;;;2.80
69435;BMP180;56625;54.322;18.582;2023-04-03T06:31:30;102239.00;;;2.80
69435;BMP180;56625;54.322;18.582;2023-04-03T06:33:58;102250.00;;;2.80
69435;BMP180;56625;54.322;18.582;2023-04-03T06:36:26;102250.20;;;2.90
69435;BMP180;56625;54.322;18.582;2023-04-03T06:38:54;102250.00;;;3.00
69435;BMP180;56625;54.322;18.582;2023-04-03T06:41:22;102263.00;;;3.20
69435;BMP180;56625;54.322;18.582;2023-04-03T06:43:50;102259.80;;;3.20
69435;BMP180;56625;54.322;18.582;2023-04-03T06:46:21;102259.20;;;3.20
69435;BMP180;56625;54.322;18.582;2023-04-03T06:48:50;102261.40;;;3.20
69435;BMP180;56625;54.322;18.582;2023-04-03T06:51:26;102257.60;;;3.16
69435;BMP180;56625;54.322;18.582;2023-04-03T06:53:58;102249.00;;;3.00
69435;BMP180;56625;54.322;18.582;2023-04-03T06:56:27;102264.20;;;3.02
69435;BMP180;56625;54.322;18.582;2023-04-03T06:58:56;102271.20;;;3.10
69435;BMP180;56625;54.322;18.582;2023-04-03T07:01:28;102274.40;;;3.10
69435;BMP180;56625;54.322;18.582;2023-04-03T07:03:57;102290.80;;;3.20
69435;BMP180;56625;54.322;18.582;2023-04-03T07:06:25;102277.00;;;3.16
69435;BMP180;56625;54.322;18.582;2023-04-03T07:08:56;102293.00;;;3.00
69435;BMP180;56625;54.322;18.582;2023-04-03T07:11:24;102273.00;;;2.92
69435;BMP180;56625;54.322;18.582;2023-04-03T07:13:53;102272.40;;;3.10
69435;BMP180;56625;54.322;18.582;2023-04-03T07:16:21;102276.80;;;3.20
69435;BMP180;56625;54.322;18.582;2023-04-03T07:18:49;102267.20;;;3.20
69435;BMP180;56625;54.322;18.582;2023-04-03T07:21:17;102283.80;;;3.20
69435;BMP180;56625;54.322;18.582;2023-04-03T07:23:45;102284.00;;;3.10
69435;BMP180;56625;54.322;18.582;2023-04-03T07:26:13;102290.00;;;3.00
69435;BMP180;56625;54.322;18.582;2023-04-03T07:28:41;102296.40;;;2.90
69435;BMP180;56625;54.322;18.582;2023-04-03T07:31:12;102285.20;;;2.92
69435;BMP180;56625;54.322;18.582;2023-04-03T07:33:42;102282.80;;;3.02
69435;BMP180;56625;54.322;18.582;2023-04-03T07:36:15;102290.80;;;3.16
69435;BMP180;56625;54.322;18.582;2023-04-03T07:38:43;102294.80;;;3.30
69435;BMP180;56625;54.322;18.582;2023-04-03T07:41:15;102295.60;;;3.40
69435;BMP180;56625;54.322;18.582;2023-04-03T07:43:45;102293.80;;;3.30
69435;BMP180;56625;54.322;18.582;2023-04-03T07:46:15;102295.60;;;3.30
69435;BMP180;56625;54.322;18.582;2023-04-03T07:48:45;102298.20;;;3.30
69435;BMP180;56625;54.322;18.582;2023-04-03T07:51:13;102296.80;;;3.44
69435;BMP180;56625;54.322;18.582;2023-04-03T07:53:41;102295.80;;;3.60
69435;BMP180;56625;54.322;18.582;2023-04-03T07:56:09;102296.40;;;3.60
69435;BMP180;56625;54.322;18.582;2023-04-03T07:58:37;102311.20;;;3.76
69435;BMP180;56625;54.322;18.582;2023-04-03T08:01:05;102303.00;;;3.70
69435;BMP180;56625;54.322;18.582;2023-04-03T08:03:33;102300.80;;;3.68
69435;BMP180;56625;54.322;18.582;2023-04-03T08:06:08;102314.00;;;3.74
69435;BMP180;56625;54.322;18.582;2023-04-03T08:08:43;102307.80;;;3.70
69435;BMP180;56625;54.322;18.582;2023-04-03T08:11:11;102311.20;;;3.70
69435;BMP180;56625;54.322;18.582;2023-04-03T08:13:39;102318.80;;;3.70
69435;BMP180;56625;54.322;18.582;2023-04-03T08:16:17;102319.60;;;3.60
69435;BMP180;56625;54.322;18.582;2023-04-03T08:18:45;102322.40;;;3.40
69435;BMP180;56625;54.322;18.582;2023-04-03T08:21:13;102314.20;;;3.40
69435;BMP180;56625;54.322;18.582;2023-04-03T08:23:41;102303.00;;;3.50
69435;BMP180;56625;54.322;18.582;2023-04-03T08:26:13;102316.60;;;3.50
69435;BMP180;56625;54.322;18.582;2023-04-03T08:28:41;102322.60;;;3.50
69435;BMP180;56625;54.322;18.582;2023-04-03T08:31:13;102322.00;;;3.48
69435;BMP180;56625;54.322;18.582;2023-04-03T08:33:41;102320.80;;;3.58
69435;BMP180;56625;54.322;18.582;2023-04-03T08:36:30;102306.40;;;3.76
69435;BMP180;56625;54.322;18.582;2023-04-03T08:38:58;102319.80;;;3.76
69435;BMP180;56625;54.322;18.582;2023-04-03T08:47:42;102318.40;;;4.10
69435;BMP180;56625;54.322;18.582;2023-04-03T08:50:20;102309.60;;;4.22
69435;BMP180;56625;54.322;18.582;2023-04-03T08:52:55;102318.00;;;4.46
69435;BMP180;56625;54.322;18.582;2023-04-03T08:55:33;102313.40;;;4.44
69435;BMP180;56625;54.322;18.582;2023-04-03T08:58:12;102310.20;;;4.20
69435;BMP180;56625;54.322;18.582;2023-04-03T09:00:51;102311.00;;;4.18
69435;BMP180;56625;54.322;18.582;2023-04-03T09:03:21;102316.20;;;4.14
69435;BMP180;56625;54.322;18.582;2023-04-03T09:06:11;102310.20;;;4.10
69435;BMP180;56625;54.322;18.582;2023-04-03T09:12:00;102312.40;;;4.50
69435;BMP180;56625;54.322;18.582;2023-04-03T09:18:17;102299.00;;;5.00
69435;BMP180;56625;54.322;18.582;2023-04-03T09:24:06;102308.80;;;5.40
69435;BMP180;56625;54.322;18.582;2023-04-03T09:27:00;102309.00;;;5.50
69435;BMP180;56625;54.322;18.582;2023-04-03T09:29:30;102311.80;;;5.40
69435;BMP180;56625;54.322;18.582;2023-04-03T09:32:18;102311.80;;;5.30
69435;BMP180;56625;54.322;18.582;2023-04-03T09:34:48;102306.20;;;5.24
69435;BMP180;56625;54.322;18.582;2023-04-03T09:37:42;102306.80;;;5.02
69435;BMP180;56625;54.322;18.582;2023-04-03T09:42:56;102301.80;;;5.30
69435;BMP180;56625;54.322;18.582;2023-04-03T09:45:35;102309.80;;;5.60
69435;BMP180;56625;54.322;18.582;2023-04-03T09:48:16;102298.20;;;5.90
69435;BMP180;56625;54.322;18.582;2023-04-03T09:53:41;102327.80;;;5.50
69435;BMP180;56625;54.322;18.582;2023-04-03T09:59:14;102324.60;;;4.64
69435;BMP180;56625;54.322;18.582;2023-04-03T10:02:22;102320.80;;;4.42
69435;BMP180;56625;54.322;18.582;2023-04-03T10:04:50;102318.00;;;4.60
69435;BMP180;56625;54.322;18.582;2023-04-03T10:07:37;102305.80;;;5.04
69435;BMP180;56625;54.322;18.582;2023-04-03T10:12:42;102293.20;;;6.00
69435;BMP180;56625;54.322;18.582;2023-04-03T10:15:16;102298.20;;;6.20
69435;BMP180;56625;54.322;18.582;2023-04-03T10:18:02;102298.60;;;6.06
69435;BMP180;56625;54.322;18.582;2023-04-03T10:20:53;102314.40;;;5.60
69435;BMP180;56625;54.322;18.582;2023-04-03T10:23:57;102301.40;;;5.22
69435;BMP180;56625;54.322;18.582;2023-04-03T10:29:39;102318.60;;;4.88
69435;BMP180;56625;54.322;18.582;2023-04-03T10:32:41;102321.40;;;4.54
69435;BMP180;56625;54.322;18.582;2023-04-03T10:38:14;102317.80;;;4.40
69435;BMP180;56625;54.322;18.582;2023-04-03T10:44:52;102319.00;;;4.30
69435;BMP180;56625;54.322;18.582;2023-04-03T10:50:29;102311.00;;;4.40
69435;BMP180;56625;54.322;18.582;2023-04-03T10:53:24;102306.40;;;4.76
69435;BMP180;56625;54.322;18.582;2023-04-03T10:56:11;102305.40;;;5.00
69435;BMP180;56625;54.322;18.582;2023-04-03T10:58:45;102304.20;;;4.80
69435;BMP180;56625;54.322;18.582;2023-04-03T11:01:26;102314.20;;;4.60
69435;BMP180;56625;54.322;18.582;2023-04-03T11:04:01;102308.40;;;4.70
69435;BMP180;56625;54.322;18.582;2023-04-03T11:06:48;102306.40;;;4.80
69435;BMP180;56625;54.322;18.582;2023-04-03T11:09:28;102312.00;;;4.60
69435;BMP180;56625;54.322;18.582;2023-04-03T11:12:23;102311.00;;;4.70
69435;BMP180;56625;54.322;18.582;2023-04-03T11:14:56;102303.80;;;5.00
69435;BMP180;56625;54.322;18.582;2023-04-03T11:17:33;102309.00;;;4.80
69435;BMP180;56625;54.322;18.582;2023-04-03T11:20:16;102305.80;;;4.86
69435;BMP180;56625;54.322;18.582;2023-04-03T11:22:52;102310.00;;;4.70
69435;BMP180;56625;54.322;18.582;2023-04-03T11:25:29;102303.20;;;4.66
69435;BMP180;56625;54.322;18.582;2023-04-03T11:28:05;102311.60;;;4.80
69435;BMP180;56625;54.322;18.582;2023-04-03T11:36:47;102295.80;;;4.80
69435;BMP180;56625;54.322;18.582;2023-04-03T11:39:31;102297.20;;;4.70
69435;BMP180;56625;54.322;18.582;2023-04-03T11:42:25;102293.60;;;4.88
69435;BMP180;56625;54.322;18.582;2023-04-03T11:50:46;102294.40;;;5.14
69435;BMP180;56625;54.322;18.582;2023-04-03T11:58:16;102302.20;;;4.58
69435;BMP180;56625;54.322;18.582;2023-04-03T12:08:48;102289.40;;;4.70
69435;BMP180;56625;54.322;18.582;2023-04-03T12:11:30;102291.60;;;4.80
69435;BMP180;56625;54.322;18.582;2023-04-03T12:16:52;102278.40;;;5.20
69435;BMP180;56625;54.322;18.582;2023-04-03T12:24:30;102273.00;;;5.32
69435;BMP180;56625;54.322;18.582;2023-04-03T12:27:20;102283.00;;;5.32
69435;BMP180;56625;54.322;18.582;2023-04-03T12:30:15;102280.00;;;5.20
69435;BMP180;56625;54.322;18.582;2023-04-03T12:36:12;102278.20;;;4.80
69435;BMP180;56625;54.322;18.582;2023-04-03T12:39:01;102265.20;;;4.88
69435;BMP180;56625;54.322;18.582;2023-04-03T12:41:55;102277.80;;;5.10
69435;BMP180;56625;54.322;18.582;2023-04-03T12:47:32;102286.00;;;4.82
69435;BMP180;56625;54.322;18.582;2023-04-03T12:53:07;102291.00;;;4.30
69435;BMP180;56625;54.322;18.582;2023-04-03T12:55:39;102287.80;;;4.30
69435;BMP180;56625;54.322;18.582;2023-04-03T12:58:33;102283.20;;;4.44
69435;BMP180;56625;54.322;18.582;2023-04-03T13:01:09;102281.60;;;4.60
69435;BMP180;56625;54.322;18.582;2023-04-03T13:03:43;102283.00;;;4.90
69435;BMP180;56625;54.322;18.582;2023-04-03T13:06:21;102274.40;;;5.00
69435;BMP180;56625;54.322;18.582;2023-04-03T13:08:53;102264.60;;;4.98
69435;BMP180;56625;54.322;18.582;2023-04-03T13:11:22;102262.40;;;5.00
69435;BMP180;56625;54.322;18.582;2023-04-03T13:14:13;102264.60;;;5.10
69435;BMP180;56625;54.322;18.582;2023-04-03T13:16:42;102258.00;;;5.40
69435;BMP180;56625;54.322;18.582;2023-04-03T13:19:20;102255.20;;;5.50
69435;BMP180;56625;54.322;18.582;2023-04-03T13:21:49;102256.20;;;5.50
69435;BMP180;56625;54.322;18.582;2023-04-03T13:24:20;102242.40;;;5.70
69435;BMP180;56625;54.322;18.582;2023-04-03T13:26:51;102258.60;;;5.74
69435;BMP180;56625;54.322;18.582;2023-04-03T13:29:53;102274.40;;;5.30
69435;BMP180;56625;54.322;18.582;2023-04-03T13:32:24;102267.40;;;4.68
69435;BMP180;56625;54.322;18.582;2023-04-03T13:34:54;102268.00;;;4.30
69435;BMP180;56625;54.322;18.582;2023-04-03T13:37:33;102273.40;;;3.94
69435;BMP180;56625;54.322;18.582;2023-04-03T13:42:39;102265.00;;;3.60
69435;BMP180;56625;54.322;18.582;2023-04-03T13:45:25;102283.00;;;3.90
69435;BMP180;56625;54.322;18.582;2023-04-03T13:48:20;102260.20;;;4.18
69435;BMP180;56625;54.322;18.582;2023-04-03T13:50:57;102263.80;;;4.38
69435;BMP180;56625;54.322;18.582;2023-04-03T13:53:29;102261.60;;;4.30
69435;BMP180;56625;54.322;18.582;2023-04-03T13:56:36;102258.80;;;4.18
69435;BMP180;56625;54.322;18.582;2023-04-03T14:07:15;102255.60;;;4.34
69435;BMP180;56625;54.322;18.582;2023-04-03T14:09:44;102246.00;;;4.20
69435;BMP180;56625;54.322;18.582;2023-04-03T14:12:25;102261.20;;;4.08
69435;BMP180;56625;54.322;18.582;2023-04-03T14:15:22;102239.80;;;4.00
69435;BMP180;56625;54.322;18.582;2023-04-03T14:17:52;102254.20;;;3.96
69435;BMP180;56625;54.322;18.582;2023-04-03T14:20:24;102247.00;;;3.90
69435;BMP180;56625;54.322;18.582;2023-04-03T14:22:54;102254.40;;;3.80
69435;BMP180;56625;54.322;18.582;2023-04-03T14:25:22;102258.20;;;3.80
69435;BMP180;56625;54.322;18.582;2023-04-03T14:27:55;102252.60;;;3.74
69435;BMP180;56625;54.322;18.582;2023-04-03T14:30:33;102252.00;;;3.54
69435;BMP180;56625;54.322;18.582;2023-04-03T14:33:01;102242.80;;;3.56
69435;BMP180;56625;54.322;18.582;2023-04-03T14:35:32;102233.80;;;3.80
69435;BMP180;56625;54.322;18.582;2023-04-03T14:38:00;102235.40;;;4.02
69435;BMP180;56625;54.322;18.582;2023-04-03T14:40:28;102232.60;;;4.10
69435;BMP180;56625;54.322;18.582;2023-04-03T14:42:56;102227.40;;;4.20
69435;BMP180;56625;54.322;18.582;2023-04-03T14:45:25;102240.80;;;4.40
69435;BMP180;56625;54.322;18.582;2023-04-03T14:47:55;102225.40;;;4.40
69435;BMP180;56625;54.322;18.582;2023-04-03T14:50:27;102227.20;;;4.56
69435;BMP180;56625;54.322;18.582;2023-04-03T14:52:58;102221.40;;;4.68
69435;BMP180;56625;54.322;18.582;2023-04-03T14:55:27;102219.60;;;4.50
69435;BMP180;56625;54.322;18.582;2023-04-03T14:57:55;102232.80;;;4.44
69435;BMP180;56625;54.322;18.582;2023-04-03T15:00:23;102227.20;;;4.40
69435;BMP180;56625;54.322;18.582;2023-04-03T15:02:52;102232.60;;;4.10
69435;BMP180;56625;54.322;18.582;2023-04-03T15:05:20;102224.40;;;4.04
69435;BMP180;56625;54.322;18.582;2023-04-03T15:07:58;102237.60;;;4.00
69435;BMP180;56625;54.322;18.582;2023-04-03T15:10:30;102240.20;;;3.90
69435;BMP180;56625;54.322;18.582;2023-04-03T15:12:58;102234.40;;;3.80
69435;BMP180;56625;54.322;18.582;2023-04-03T15:15:29;102235.40;;;3.90
69435;BMP180;56625;54.322;18.582;2023-04-03T15:17:57;102243.40;;;3.74
69435;BMP180;56625;54.322;18.582;2023-04-03T15:20:28;102236.20;;;3.70
69435;BMP180;56625;54.322;18.582;2023-04-03T15:22:59;102240.40;;;3.52
69435;BMP180;56625;54.322;18.582;2023-04-03T15:25:32;102240.40;;;3.30
69435;BMP180;56625;54.322;18.582;2023-04-03T15:28:00;102235.60;;;3.26
69435;BMP180;56625;54.322;18.582;2023-04-03T15:30:28;102234.40;;;3.32
69435;BMP180;56625;54.322;18.582;2023-04-03T15:32:57;102233.60;;;3.40
69435;BMP180;56625;54.322;18.582;2023-04-03T15:35:24;102228.40;;;3.50
69435;BMP180;56625;54.322;18.582;2023-04-03T15:37:52;102226.00;;;3.60
69435;BMP180;56625;54.322;18.582;2023-04-03T15:40:20;102224.20;;;3.68
69435;BMP180;56625;54.322;18.582;2023-04-03T15:42:48;102230.60;;;3.52
69435;BMP180;56625;54.322;18.582;2023-04-03T15:45:18;102233.60;;;3.46
69435;BMP180;56625;54.322;18.582;2023-04-03T15:47:47;102233.60;;;3.40
69435;BMP180;56625;54.322;18.582;2023-04-03T15:50:15;102226.40;;;3.40
69435;BMP180;56625;54.322;18.582;2023-04-03T15:52:43;102231.40;;;3.36
69435;BMP180;56625;54.322;18.582;2023-04-03T15:55:11;102233.60;;;3.30
69435;BMP180;56625;54.322;18.582;2023-04-03T15:57:38;102235.40;;;3.30
69435;BMP180;56625;54.322;18.582;2023-04-03T16:00:13;102234.00;;;3.24
69435;BMP180;56625;54.322;18.582;2023-04-03T16:02:46;102242.60;;;3.10
69435;BMP180;56625;54.322;18.582;2023-04-03T16:05:15;102233.20;;;3.10